sensor_id;sensor_type;location;lat;lon;timestamp;P1;durP1;ratioP1;P2;durP2;ratioP2
1467;SDS011;727;48.892;9.544;2023-02-01T00:01:54;9.68;;;5.13;;
1467;SDS011;727;48.892;9.544;2023-02-01T00:04:21;6.30;;;4.55;;
1467;SDS011;727;48.892;9.544;2023-02-01T00:06:49;8.02;;;5.90;;
1467;SDS011;727;48.892;9.544;2023-02-01T00:09:16;5.97;;;5.32;;
1467;SDS011;727;48.892;9.544;2023-02-01T00:11:43;6.88;;;4.68;;
1467;SDS011;727;48.892;9.544;2023-02-01T00:14:10;7.43;;;5.00;;
1467;SDS011;727;48.892;9.544;2023-02-01T00:16:37;5.90;;;5.18;;
1467;SDS011;727;48.892;9.544;2023-02-01T00:19:04;6.18;;;4.28;;
1467;SDS011;727;48.892;9.544;2023-02-01T00:21:33;4.60;;;4.20;;
1467;SDS011;727;48.892;9.544;2023-02-01T00:24:01;9.00;;;5.10;;
1467;SDS011;727;48.892;9.544;2023-02-01T00:26:30;7.68;;;6.20;;
1467;SDS011;727;48.892;9.544;2023-02-01T00:28:58;6.82;;;5.07;;
1467;SDS011;727;48.892;9.544;2023-02-01T00:31:25;6.97;;;4.97;;
1467;SDS011;727;48.892;9.544;2023-02-01T00:33:52;4.50;;;3.70;;
1467;SDS011;727;48.892;9.544;2023-02-01T00:36:19;5.47;;;4.57;;
1467;SDS011;727;48.892;9.544;2023-02-01T00:38:46;4.13;;;3.65;;
1467;SDS011;727;48.892;9.544;2023-02-01T00:41:14;6.78;;;4.47;;
1467;SDS011;727;48.892;9.544;2023-02-01T00:43:43;5.22;;;3.97;;
1467;SDS011;727;48.892;9.544;2023-02-01T00:46:10;4.07;;;3.78;;
1467;SDS011;727;48.892;9.544;2023-02-01T00:48:38;4.97;;;4.30;;
1467;SDS011;727;48.892;9.544;2023-02-01T00:51:06;3.83;;;3.42;;
1467;SDS011;727;48.892;9.544;2023-02-01T00:53:35;4.85;;;4.20;;
1467;SDS011;727;48.892;9.544;2023-02-01T00:56:02;4.75;;;4.35;;
1467;SDS011;727;48.892;9.544;2023-02-01T00:58:31;4.65;;;4.25;;
1467;SDS011;727;48.892;9.544;2023-02-01T01:01:02;4.20;;;3.75;;
1467;SDS011;727;48.892;9.544;2023-02-01T01:03:32;4.30;;;3.90;;
1467;SDS011;727;48.892;9.544;2023-02-01T01:06:00;5.35;;;4.03;;
1467;SDS011;727;48.892;9.544;2023-02-01T01:08:29;4.25;;;3.30;;
1467;SDS011;727;48.892;9.544;2023-02-01T01:10:56;3.95;;;3.63;;
1467;SDS011;727;48.892;9.544;2023-02-01T01:13:23;6.35;;;3.70;;
1467;SDS011;727;48.892;9.544;2023-02-01T01:15:51;4.43;;;4.03;;
1467;SDS011;727;48.892;9.544;2023-02-01T01:18:18;3.78;;;3.47;;
1467;SDS011;727;48.892;9.544;2023-02-01T01:20:44;5.00;;;3.38;;
1467;SDS011;727;48.892;9.544;2023-02-01T01:23:11;5.13;;;4.45;;
1467;SDS011;727;48.892;9.544;2023-02-01T01:25:38;3.50;;;3.20;;
1467;SDS011;727;48.892;9.544;2023-02-01T01:28:05;4.28;;;3.88;;
1467;SDS011;727;48.892;9.544;2023-02-01T01:30:33;3.58;;;3.28;;
1467;SDS011;727;48.892;9.544;2023-02-01T01:33:01;4.18;;;3.60;;
1467;SDS011;727;48.892;9.544;2023-02-01T01:35:29;3.17;;;2.95;;
1467;SDS011;727;48.892;9.544;2023-02-01T01:37:56;4.50;;;3.05;;
1467;SDS011;727;48.892;9.544;2023-02-01T01:40:24;3.72;;;3.40;;
1467;SDS011;727;48.892;9.544;2023-02-01T01:42:51;3.95;;;3.25;;
1467;SDS011;727;48.892;9.544;2023-02-01T01:45:21;4.57;;;3.80;;
1467;SDS011;727;48.892;9.544;2023-02-01T01:47:52;4.10;;;3.42;;
1467;SDS011;727;48.892;9.544;2023-02-01T01:50:23;4.60;;;3.30;;
1467;SDS011;727;48.892;9.544;2023-02-01T01:52:52;3.97;;;3.58;;
1467;SDS011;727;48.892;9.544;2023-02-01T01:55:22;3.53;;;3.13;;
1467;SDS011;727;48.892;9.544;2023-02-01T01:57:52;2.55;;;2.20;;
1467;SDS011;727;48.892;9.544;2023-02-01T02:00:21;4.78;;;2.97;;
1467;SDS011;727;48.892;9.544;2023-02-01T02:02:50;3.53;;;2.90;;
1467;SDS011;727;48.892;9.544;2023-02-01T02:05:24;2.70;;;2.50;;
1467;SDS011;727;48.892;9.544;2023-02-01T02:07:52;3.45;;;3.15;;
1467;SDS011;727;48.892;9.544;2023-02-01T02:10:22;2.97;;;2.75;;
1467;SDS011;727;48.892;9.544;2023-02-01T02:13:09;2.78;;;2.15;;
1467;SDS011;727;48.892;9.544;2023-02-01T02:15:36;4.07;;;2.60;;
1467;SDS011;727;48.892;9.544;2023-02-01T02:18:09;2.03;;;1.92;;
1467;SDS011;727;48.892;9.544;2023-02-01T02:21:01;3.08;;;2.47;;
1467;SDS011;727;48.892;9.544;2023-02-01T02:23:47;2.63;;;2.20;;
1467;SDS011;727;48.892;9.544;2023-02-01T02:26:54;3.53;;;2.97;;
1467;SDS011;727;48.892;9.544;2023-02-01T02:29:37;2.88;;;2.40;;
1467;SDS011;727;48.892;9.544;2023-02-01T02:32:28;4.70;;;2.40;;
1467;SDS011;727;48.892;9.544;2023-02-01T02:35:26;2.63;;;2.42;;
1467;SDS011;727;48.892;9.544;2023-02-01T02:38:02;4.00;;;2.70;;
1467;SDS011;727;48.892;9.544;2023-02-01T02:40:41;4.18;;;3.00;;
1467;SDS011;727;48.892;9.544;2023-02-01T02:43:14;2.75;;;2.55;;
1467;SDS011;727;48.892;9.544;2023-02-01T02:46:05;3.80;;;2.30;;
1467;SDS011;727;48.892;9.544;2023-02-01T02:48:58;4.60;;;2.08;;
1467;SDS011;727;48.892;9.544;2023-02-01T02:51:30;4.00;;;2.28;;
1467;SDS011;727;48.892;9.544;2023-02-01T02:54:21;2.97;;;2.70;;
1467;SDS011;727;48.892;9.544;2023-02-01T02:57:09;2.63;;;2.40;;
1467;SDS011;727;48.892;9.544;2023-02-01T02:59:56;5.90;;;3.70;;
1467;SDS011;727;48.892;9.544;2023-02-01T03:02:42;4.18;;;2.55;;
1467;SDS011;727;48.892;9.544;2023-02-01T03:05:31;2.92;;;2.70;;
1467;SDS011;727;48.892;9.544;2023-02-01T03:08:08;3.00;;;2.72;;
1467;SDS011;727;48.892;9.544;2023-02-01T03:10:41;3.08;;;2.78;;
1467;SDS011;727;48.892;9.544;2023-02-01T03:13:15;3.35;;;2.80;;
1467;SDS011;727;48.892;9.544;2023-02-01T03:15:49;3.17;;;2.70;;
1467;SDS011;727;48.892;9.544;2023-02-01T03:18:21;3.47;;;3.13;;
1467;SDS011;727;48.892;9.544;2023-02-01T03:20:54;3.10;;;2.78;;
1467;SDS011;727;48.892;9.544;2023-02-01T03:23:25;3.70;;;2.70;;
1467;SDS011;727;48.892;9.544;2023-02-01T03:25:54;4.32;;;3.85;;
1467;SDS011;727;48.892;9.544;2023-02-01T03:28:24;2.75;;;2.55;;
1467;SDS011;727;48.892;9.544;2023-02-01T03:30:53;3.85;;;2.92;;
1467;SDS011;727;48.892;9.544;2023-02-01T03:33:21;4.28;;;3.60;;
1467;SDS011;727;48.892;9.544;2023-02-01T03:35:54;3.17;;;2.88;;
1467;SDS011;727;48.892;9.544;2023-02-01T03:38:27;2.58;;;2.38;;
1467;SDS011;727;48.892;9.544;2023-02-01T03:41:00;3.03;;;2.70;;
1467;SDS011;727;48.892;9.544;2023-02-01T03:43:36;3.00;;;2.70;;
1467;SDS011;727;48.892;9.544;2023-02-01T03:46:21;2.70;;;2.47;;
1467;SDS011;727;48.892;9.544;2023-02-01T03:48:52;3.25;;;2.95;;
1467;SDS011;727;48.892;9.544;2023-02-01T03:51:21;3.15;;;2.85;;
1467;SDS011;727;48.892;9.544;2023-02-01T03:53:50;4.60;;;3.22;;
1467;SDS011;727;48.892;9.544;2023-02-01T03:56:19;2.80;;;2.50;;
1467;SDS011;727;48.892;9.544;2023-02-01T03:58:49;3.35;;;2.90;;
1467;SDS011;727;48.892;9.544;2023-02-01T04:01:24;2.50;;;2.30;;
1467;SDS011;727;48.892;9.544;2023-02-01T04:03:52;2.42;;;2.20;;
1467;SDS011;727;48.892;9.544;2023-02-01T04:06:19;3.20;;;3.00;;
1467;SDS011;727;48.892;9.544;2023-02-01T04:08:46;3.70;;;3.35;;
1467;SDS011;727;48.892;9.544;2023-02-01T04:11:14;3.30;;;2.80;;
1467;SDS011;727;48.892;9.544;2023-02-01T04:13:41;3.63;;;3.33;;
1467;SDS011;727;48.892;9.544;2023-02-01T04:16:08;7.50;;;5.30;;
1467;SDS011;727;48.892;9.544;2023-02-01T04:18:35;4.80;;;3.45;;
1467;SDS011;727;48.892;9.544;2023-02-01T04:21:02;2.33;;;2.20;;
1467;SDS011;727;48.892;9.544;2023-02-01T04:23:29;12.18;;;7.85;;
1467;SDS011;727;48.892;9.544;2023-02-01T04:25:58;6.97;;;5.63;;
1467;SDS011;727;48.892;9.544;2023-02-01T04:28:27;17.38;;;13.65;;
1467;SDS011;727;48.892;9.544;2023-02-01T04:30:54;7.05;;;4.93;;
1467;SDS011;727;48.892;9.544;2023-02-01T04:33:21;4.60;;;4.20;;
1467;SDS011;727;48.892;9.544;2023-02-01T04:35:48;3.60;;;3.28;;
1467;SDS011;727;48.892;9.544;2023-02-01T04:38:15;3.53;;;3.15;;
1467;SDS011;727;48.892;9.544;2023-02-01T04:40:42;6.93;;;3.88;;
1467;SDS011;727;48.892;9.544;2023-02-01T04:43:09;4.35;;;3.22;;
1467;SDS011;727;48.892;9.544;2023-02-01T04:45:37;3.53;;;2.70;;
1467;SDS011;727;48.892;9.544;2023-02-01T04:48:04;3.25;;;3.00;;
1467;SDS011;727;48.892;9.544;2023-02-01T04:50:31;3.60;;;3.30;;
1467;SDS011;727;48.892;9.544;2023-02-01T04:52:57;3.50;;;3.15;;
1467;SDS011;727;48.892;9.544;2023-02-01T04:55:24;5.30;;;3.95;;
1467;SDS011;727;48.892;9.544;2023-02-01T04:57:51;4.15;;;3.78;;
1467;SDS011;727;48.892;9.544;2023-02-01T05:00:18;4.75;;;3.80;;
1467;SDS011;727;48.892;9.544;2023-02-01T05:02:46;4.88;;;4.47;;
1467;SDS011;727;48.892;9.544;2023-02-01T05:05:13;3.97;;;3.67;;
1467;SDS011;727;48.892;9.544;2023-02-01T05:07:40;4.30;;;3.90;;
1467;SDS011;727;48.892;9.544;2023-02-01T05:10:07;4.20;;;3.80;;
1467;SDS011;727;48.892;9.544;2023-02-01T05:12:35;4.38;;;4.07;;
1467;SDS011;727;48.892;9.544;2023-02-01T05:15:19;4.15;;;3.85;;
1467;SDS011;727;48.892;9.544;2023-02-01T05:17:47;6.00;;;3.97;;
1467;SDS011;727;48.892;9.544;2023-02-01T05:20:14;8.63;;;3.40;;
1467;SDS011;727;48.892;9.544;2023-02-01T05:22:41;3.15;;;2.85;;
1467;SDS011;727;48.892;9.544;2023-02-01T05:25:08;3.25;;;2.95;;
1467;SDS011;727;48.892;9.544;2023-02-01T05:27:35;3.03;;;2.75;;
1467;SDS011;727;48.892;9.544;2023-02-01T05:30:02;3.42;;;3.00;;
1467;SDS011;727;48.892;9.544;2023-02-01T05:32:29;3.63;;;3.33;;
1467;SDS011;727;48.892;9.544;2023-02-01T05:34:58;3.95;;;3.65;;
1467;SDS011;727;48.892;9.544;2023-02-01T05:37:25;3.97;;;3.58;;
1467;SDS011;727;48.892;9.544;2023-02-01T05:39:51;2.83;;;2.60;;
1467;SDS011;727;48.892;9.544;2023-02-01T05:42:18;3.88;;;3.58;;
1467;SDS011;727;48.892;9.544;2023-02-01T05:44:45;3.28;;;2.97;;
1467;SDS011;727;48.892;9.544;2023-02-01T05:47:12;2.40;;;2.30;;
1467;SDS011;727;48.892;9.544;2023-02-01T05:49:39;3.30;;;3.00;;
1467;SDS011;727;48.892;9.544;2023-02-01T05:52:07;3.10;;;2.90;;
1467;SDS011;727;48.892;9.544;2023-02-01T05:54:33;3.40;;;2.95;;
1467;SDS011;727;48.892;9.544;2023-02-01T05:57:00;4.32;;;3.92;;
1467;SDS011;727;48.892;9.544;2023-02-01T05:59:27;7.88;;;4.53;;
1467;SDS011;727;48.892;9.544;2023-02-01T06:01:54;4.07;;;3.45;;
1467;SDS011;727;48.892;9.544;2023-02-01T06:04:21;2.92;;;2.72;;
1467;SDS011;727;48.892;9.544;2023-02-01T06:06:47;2.90;;;2.70;;
1467;SDS011;727;48.892;9.544;2023-02-01T06:09:16;3.60;;;3.30;;
1467;SDS011;727;48.892;9.544;2023-02-01T06:11:43;4.32;;;2.80;;
1467;SDS011;727;48.892;9.544;2023-02-01T06:14:10;3.22;;;2.85;;
1467;SDS011;727;48.892;9.544;2023-02-01T06:16:37;3.47;;;2.70;;
1467;SDS011;727;48.892;9.544;2023-02-01T06:19:03;5.97;;;3.72;;
1467;SDS011;727;48.892;9.544;2023-02-01T06:21:30;4.65;;;3.30;;
1467;SDS011;727;48.892;9.544;2023-02-01T06:23:58;4.05;;;3.65;;
1467;SDS011;727;48.892;9.544;2023-02-01T06:26:26;3.33;;;3.03;;
1467;SDS011;727;48.892;9.544;2023-02-01T06:28:54;5.43;;;5.00;;
1467;SDS011;727;48.892;9.544;2023-02-01T06:31:21;7.10;;;4.95;;
1467;SDS011;727;48.892;9.544;2023-02-01T06:33:48;5.93;;;4.38;;
1467;SDS011;727;48.892;9.544;2023-02-01T06:36:15;11.55;;;8.30;;
1467;SDS011;727;48.892;9.544;2023-02-01T06:38:43;13.05;;;8.82;;
1467;SDS011;727;48.892;9.544;2023-02-01T06:41:10;42.60;;;23.17;;
1467;SDS011;727;48.892;9.544;2023-02-01T06:43:38;28.23;;;15.15;;
1467;SDS011;727;48.892;9.544;2023-02-01T06:46:06;22.45;;;14.60;;
1467;SDS011;727;48.892;9.544;2023-02-01T06:48:34;21.05;;;14.50;;
1467;SDS011;727;48.892;9.544;2023-02-01T06:51:00;7.38;;;6.45;;
1467;SDS011;727;48.892;9.544;2023-02-01T06:53:27;7.57;;;5.85;;
1467;SDS011;727;48.892;9.544;2023-02-01T06:55:55;8.75;;;7.95;;
1467;SDS011;727;48.892;9.544;2023-02-01T06:58:23;5.60;;;5.10;;
1467;SDS011;727;48.892;9.544;2023-02-01T07:00:52;5.60;;;4.97;;
1467;SDS011;727;48.892;9.544;2023-02-01T07:03:18;4.68;;;4.28;;
1467;SDS011;727;48.892;9.544;2023-02-01T07:05:45;5.25;;;3.88;;
1467;SDS011;727;48.892;9.544;2023-02-01T07:08:12;4.80;;;3.88;;
1467;SDS011;727;48.892;9.544;2023-02-01T07:10:39;6.70;;;4.28;;
1467;SDS011;727;48.892;9.544;2023-02-01T07:13:06;4.90;;;4.40;;
1467;SDS011;727;48.892;9.544;2023-02-01T07:15:32;4.38;;;3.50;;
1467;SDS011;727;48.892;9.544;2023-02-01T07:18:00;3.58;;;2.95;;
1467;SDS011;727;48.892;9.544;2023-02-01T07:20:27;4.07;;;3.78;;
1467;SDS011;727;48.892;9.544;2023-02-01T07:22:55;4.40;;;4.00;;
1467;SDS011;727;48.892;9.544;2023-02-01T07:25:22;3.85;;;3.55;;
1467;SDS011;727;48.892;9.544;2023-02-01T07:27:49;4.82;;;4.07;;
1467;SDS011;727;48.892;9.544;2023-02-01T07:30:16;5.20;;;4.75;;
1467;SDS011;727;48.892;9.544;2023-02-01T07:32:43;10.02;;;4.78;;
1467;SDS011;727;48.892;9.544;2023-02-01T07:35:12;4.40;;;3.72;;
1467;SDS011;727;48.892;9.544;2023-02-01T07:37:39;4.75;;;4.35;;
1467;SDS011;727;48.892;9.544;2023-02-01T07:40:06;7.05;;;4.70;;
1467;SDS011;727;48.892;9.544;2023-02-01T07:42:33;7.28;;;6.30;;
1467;SDS011;727;48.892;9.544;2023-02-01T07:45:00;9.77;;;7.75;;
1467;SDS011;727;48.892;9.544;2023-02-01T07:47:27;9.68;;;6.25;;
1467;SDS011;727;48.892;9.544;2023-02-01T07:49:54;22.40;;;12.43;;
1467;SDS011;727;48.892;9.544;2023-02-01T07:52:22;8.02;;;5.68;;
1467;SDS011;727;48.892;9.544;2023-02-01T07:54:49;11.45;;;6.53;;
1467;SDS011;727;48.892;9.544;2023-02-01T07:57:15;7.47;;;4.88;;
1467;SDS011;727;48.892;9.544;2023-02-01T07:59:42;8.45;;;5.75;;
1467;SDS011;727;48.892;9.544;2023-02-01T08:02:23;11.85;;;5.90;;
1467;SDS011;727;48.892;9.544;2023-02-01T08:04:50;9.23;;;5.55;;
1467;SDS011;727;48.892;9.544;2023-02-01T08:07:17;6.63;;;5.60;;
1467;SDS011;727;48.892;9.544;2023-02-01T08:09:45;9.63;;;6.20;;
1467;SDS011;727;48.892;9.544;2023-02-01T08:12:12;12.35;;;8.57;;
1467;SDS011;727;48.892;9.544;2023-02-01T08:14:38;9.18;;;6.50;;
1467;SDS011;727;48.892;9.544;2023-02-01T08:17:05;20.10;;;8.82;;
1467;SDS011;727;48.892;9.544;2023-02-01T08:19:32;10.63;;;7.00;;
1467;SDS011;727;48.892;9.544;2023-02-01T08:21:59;12.10;;;7.30;;
1467;SDS011;727;48.892;9.544;2023-02-01T08:24:31;8.93;;;6.10;;
1467;SDS011;727;48.892;9.544;2023-02-01T08:26:59;11.20;;;5.50;;
1467;SDS011;727;48.892;9.544;2023-02-01T08:29:26;9.40;;;6.15;;
1467;SDS011;727;48.892;9.544;2023-02-01T08:31:53;10.65;;;6.45;;
1467;SDS011;727;48.892;9.544;2023-02-01T08:34:20;6.20;;;5.60;;
1467;SDS011;727;48.892;9.544;2023-02-01T08:36:47;8.05;;;5.35;;
1467;SDS011;727;48.892;9.544;2023-02-01T08:39:13;8.88;;;6.75;;
1467;SDS011;727;48.892;9.544;2023-02-01T08:41:40;8.55;;;6.80;;
1467;SDS011;727;48.892;9.544;2023-02-01T08:44:29;9.27;;;7.50;;
1467;SDS011;727;48.892;9.544;2023-02-01T08:46:56;12.70;;;6.75;;
1467;SDS011;727;48.892;9.544;2023-02-01T08:49:23;11.50;;;7.55;;
1467;SDS011;727;48.892;9.544;2023-02-01T08:51:49;9.38;;;8.52;;
1467;SDS011;727;48.892;9.544;2023-02-01T08:54:16;10.32;;;6.38;;
1467;SDS011;727;48.892;9.544;2023-02-01T08:56:43;6.30;;;5.25;;
1467;SDS011;727;48.892;9.544;2023-02-01T08:59:10;9.98;;;6.40;;
1467;SDS011;727;48.892;9.544;2023-02-01T09:01:38;9.20;;;7.47;;
1467;SDS011;727;48.892;9.544;2023-02-01T09:04:05;10.30;;;5.65;;
1467;SDS011;727;48.892;9.544;2023-02-01T09:06:31;12.05;;;5.72;;
1467;SDS011;727;48.892;9.544;2023-02-01T09:08:58;11.45;;;5.07;;
1467;SDS011;727;48.892;9.544;2023-02-01T09:11:25;10.90;;;5.80;;
1467;SDS011;727;48.892;9.544;2023-02-01T09:13:51;9.20;;;5.72;;
1467;SDS011;727;48.892;9.544;2023-02-01T09:16:18;7.72;;;6.00;;
1467;SDS011;727;48.892;9.544;2023-02-01T09:18:46;7.03;;;4.90;;
1467;SDS011;727;48.892;9.544;2023-02-01T09:21:13;12.40;;;8.63;;
1467;SDS011;727;48.892;9.544;2023-02-01T09:23:40;8.18;;;6.50;;
1467;SDS011;727;48.892;9.544;2023-02-01T09:26:07;17.95;;;9.18;;
1467;SDS011;727;48.892;9.544;2023-02-01T09:28:36;8.85;;;7.13;;
1467;SDS011;727;48.892;9.544;2023-02-01T09:31:03;18.10;;;9.18;;
1467;SDS011;727;48.892;9.544;2023-02-01T09:33:29;9.90;;;6.03;;
1467;SDS011;727;48.892;9.544;2023-02-01T09:35:58;12.05;;;7.10;;
1467;SDS011;727;48.892;9.544;2023-02-01T09:38:26;13.65;;;4.13;;
1467;SDS011;727;48.892;9.544;2023-02-01T09:40:53;16.45;;;6.15;;
1467;SDS011;727;48.892;9.544;2023-02-01T09:43:24;10.27;;;4.88;;
1467;SDS011;727;48.892;9.544;2023-02-01T09:45:59;6.25;;;4.80;;
1467;SDS011;727;48.892;9.544;2023-02-01T09:48:35;9.93;;;4.78;;
1467;SDS011;727;48.892;9.544;2023-02-01T09:51:18;5.38;;;4.50;;
1467;SDS011;727;48.892;9.544;2023-02-01T09:53:51;11.40;;;5.80;;
1467;SDS011;727;48.892;9.544;2023-02-01T09:56:26;9.65;;;4.88;;
1467;SDS011;727;48.892;9.544;2023-02-01T09:59:01;8.57;;;5.32;;
1467;SDS011;727;48.892;9.544;2023-02-01T10:01:35;9.02;;;5.13;;
1467;SDS011;727;48.892;9.544;2023-02-01T10:04:04;8.57;;;4.70;;
1467;SDS011;727;48.892;9.544;2023-02-01T10:06:39;11.32;;;6.43;;
1467;SDS011;727;48.892;9.544;2023-02-01T10:09:31;8.52;;;5.45;;
1467;SDS011;727;48.892;9.544;2023-02-01T10:15:12;7.75;;;4.85;;
1467;SDS011;727;48.892;9.544;2023-02-01T10:17:50;11.57;;;5.03;;
1467;SDS011;727;48.892;9.544;2023-02-01T10:20:26;18.95;;;6.05;;
1467;SDS011;727;48.892;9.544;2023-02-01T10:23:00;11.35;;;5.43;;
1467;SDS011;727;48.892;9.544;2023-02-01T10:25:36;6.53;;;4.05;;
1467;SDS011;727;48.892;9.544;2023-02-01T10:28:08;7.47;;;3.83;;
1467;SDS011;727;48.892;9.544;2023-02-01T10:30:41;13.13;;;4.43;;
1467;SDS011;727;48.892;9.544;2023-02-01T10:33:14;12.70;;;5.25;;
1467;SDS011;727;48.892;9.544;2023-02-01T10:35:44;7.93;;;4.60;;
1467;SDS011;727;48.892;9.544;2023-02-01T10:38:26;12.05;;;5.53;;
1467;SDS011;727;48.892;9.544;2023-02-01T10:40:55;10.73;;;3.95;;
1467;SDS011;727;48.892;9.544;2023-02-01T10:43:26;10.32;;;5.10;;
1467;SDS011;727;48.892;9.544;2023-02-01T10:45:53;9.82;;;6.85;;
1467;SDS011;727;48.892;9.544;2023-02-01T10:48:20;13.50;;;5.20;;
1467;SDS011;727;48.892;9.544;2023-02-01T10:50:48;12.15;;;6.10;;
1467;SDS011;727;48.892;9.544;2023-02-01T10:53:23;24.02;;;7.82;;
1467;SDS011;727;48.892;9.544;2023-02-01T10:55:54;18.38;;;7.00;;
1467;SDS011;727;48.892;9.544;2023-02-01T10:58:25;38.17;;;19.95;;
1467;SDS011;727;48.892;9.544;2023-02-01T11:00:56;30.45;;;14.13;;
1467;SDS011;727;48.892;9.544;2023-02-01T11:03:31;8.02;;;5.50;;
1467;SDS011;727;48.892;9.544;2023-02-01T11:06:09;15.50;;;5.63;;
1467;SDS011;727;48.892;9.544;2023-02-01T11:08:44;10.93;;;4.82;;
1467;SDS011;727;48.892;9.544;2023-02-01T11:11:13;10.05;;;4.60;;
1467;SDS011;727;48.892;9.544;2023-02-01T11:13:40;8.65;;;3.67;;
1467;SDS011;727;48.892;9.544;2023-02-01T11:16:09;14.65;;;6.63;;
1467;SDS011;727;48.892;9.544;2023-02-01T11:18:38;10.32;;;4.40;;
1467;SDS011;727;48.892;9.544;2023-02-01T11:21:05;15.43;;;6.18;;
1467;SDS011;727;48.892;9.544;2023-02-01T11:23:33;16.95;;;3.33;;
1467;SDS011;727;48.892;9.544;2023-02-01T11:26:09;13.05;;;4.63;;
1467;SDS011;727;48.892;9.544;2023-02-01T11:28:38;9.77;;;4.38;;
1467;SDS011;727;48.892;9.544;2023-02-01T11:31:07;11.32;;;4.18;;
1467;SDS011;727;48.892;9.544;2023-02-01T11:33:37;7.63;;;3.80;;
1467;SDS011;727;48.892;9.544;2023-02-01T11:36:14;13.68;;;4.82;;
1467;SDS011;727;48.892;9.544;2023-02-01T11:38:45;16.95;;;3.55;;
1467;SDS011;727;48.892;9.544;2023-02-01T11:41:22;11.48;;;4.70;;
1467;SDS011;727;48.892;9.544;2023-02-01T11:43:51;7.60;;;5.20;;
1467;SDS011;727;48.892;9.544;2023-02-01T11:46:22;8.45;;;4.78;;
1467;SDS011;727;48.892;9.544;2023-02-01T11:48:53;8.70;;;4.10;;
1467;SDS011;727;48.892;9.544;2023-02-01T11:51:25;7.80;;;4.38;;
1467;SDS011;727;48.892;9.544;2023-02-01T11:54:09;12.98;;;4.05;;
1467;SDS011;727;48.892;9.544;2023-02-01T11:56:45;15.93;;;4.45;;
1467;SDS011;727;48.892;9.544;2023-02-01T11:59:23;12.07;;;4.57;;
1467;SDS011;727;48.892;9.544;2023-02-01T12:02:11;14.23;;;3.90;;
1467;SDS011;727;48.892;9.544;2023-02-01T12:04:54;12.00;;;3.70;;
1467;SDS011;727;48.892;9.544;2023-02-01T12:07:39;7.30;;;4.63;;
1467;SDS011;727;48.892;9.544;2023-02-01T12:10:20;8.85;;;3.17;;
1467;SDS011;727;48.892;9.544;2023-02-01T12:12:59;19.70;;;3.75;;
1467;SDS011;727;48.892;9.544;2023-02-01T12:15:38;11.18;;;4.68;;
1467;SDS011;727;48.892;9.544;2023-02-01T12:21:22;6.63;;;3.78;;
1467;SDS011;727;48.892;9.544;2023-02-01T12:24:01;14.02;;;4.82;;
1467;SDS011;727;48.892;9.544;2023-02-01T12:26:53;7.05;;;3.67;;
1467;SDS011;727;48.892;9.544;2023-02-01T12:29:35;9.57;;;4.05;;
1467;SDS011;727;48.892;9.544;2023-02-01T12:32:21;9.35;;;3.00;;
1467;SDS011;727;48.892;9.544;2023-02-01T12:35:09;7.88;;;3.10;;
1467;SDS011;727;48.892;9.544;2023-02-01T12:37:45;8.75;;;4.93;;
1467;SDS011;727;48.892;9.544;2023-02-01T12:40:34;6.38;;;3.35;;
1467;SDS011;727;48.892;9.544;2023-02-01T12:43:12;7.32;;;3.20;;
1467;SDS011;727;48.892;9.544;2023-02-01T12:45:49;12.18;;;4.57;;
1467;SDS011;727;48.892;9.544;2023-02-01T12:48:24;4.95;;;2.70;;
1467;SDS011;727;48.892;9.544;2023-02-01T12:50:54;9.13;;;3.10;;
1467;SDS011;727;48.892;9.544;2023-02-01T12:53:27;7.07;;;3.65;;
1467;SDS011;727;48.892;9.544;2023-02-01T12:56:01;9.20;;;3.60;;
1467;SDS011;727;48.892;9.544;2023-02-01T12:58:35;8.82;;;4.80;;
1467;SDS011;727;48.892;9.544;2023-02-01T13:01:10;7.38;;;5.28;;
1467;SDS011;727;48.892;9.544;2023-02-01T13:03:42;18.70;;;5.55;;
1467;SDS011;727;48.892;9.544;2023-02-01T13:06:22;8.68;;;3.85;;
1467;SDS011;727;48.892;9.544;2023-02-01T13:08:54;15.50;;;4.35;;
1467;SDS011;727;48.892;9.544;2023-02-01T13:11:27;11.65;;;4.78;;
1467;SDS011;727;48.892;9.544;2023-02-01T13:13:59;15.95;;;4.15;;
1467;SDS011;727;48.892;9.544;2023-02-01T13:16:32;11.75;;;3.47;;
1467;SDS011;727;48.892;9.544;2023-02-01T13:19:05;8.27;;;3.67;;
1467;SDS011;727;48.892;9.544;2023-02-01T13:21:39;11.90;;;3.58;;
1467;SDS011;727;48.892;9.544;2023-02-01T13:24:14;12.25;;;3.53;;
1467;SDS011;727;48.892;9.544;2023-02-01T13:26:52;13.27;;;3.80;;
1467;SDS011;727;48.892;9.544;2023-02-01T13:29:20;9.30;;;2.70;;
1467;SDS011;727;48.892;9.544;2023-02-01T13:31:56;5.85;;;3.85;;
1467;SDS011;727;48.892;9.544;2023-02-01T13:34:38;10.07;;;3.08;;
1467;SDS011;727;48.892;9.544;2023-02-01T13:37:27;8.45;;;3.80;;
1467;SDS011;727;48.892;9.544;2023-02-01T13:40:16;9.32;;;3.13;;
1467;SDS011;727;48.892;9.544;2023-02-01T13:42:52;6.18;;;2.65;;
1467;SDS011;727;48.892;9.544;2023-02-01T13:45:22;18.23;;;3.55;;
1467;SDS011;727;48.892;9.544;2023-02-01T13:47:52;13.80;;;4.22;;
1467;SDS011;727;48.892;9.544;2023-02-01T13:50:22;13.38;;;3.15;;
1467;SDS011;727;48.892;9.544;2023-02-01T13:52:52;9.70;;;3.55;;
1467;SDS011;727;48.892;9.544;2023-02-01T13:55:30;8.48;;;3.78;;
1467;SDS011;727;48.892;9.544;2023-02-01T13:58:00;22.58;;;4.30;;
1467;SDS011;727;48.892;9.544;2023-02-01T14:00:30;19.52;;;5.88;;
1467;SDS011;727;48.892;9.544;2023-02-01T14:06:16;9.05;;;3.78;;
1467;SDS011;727;48.892;9.544;2023-02-01T14:09:18;17.38;;;7.05;;
1467;SDS011;727;48.892;9.544;2023-02-01T14:11:57;17.27;;;6.47;;
1467;SDS011;727;48.892;9.544;2023-02-01T14:14:45;10.05;;;4.90;;
1467;SDS011;727;48.892;9.544;2023-02-01T14:23:21;6.32;;;3.75;;
1467;SDS011;727;48.892;9.544;2023-02-01T14:28:37;12.13;;;5.47;;
1467;SDS011;727;48.892;9.544;2023-02-01T14:33:58;13.57;;;3.47;;
1467;SDS011;727;48.892;9.544;2023-02-01T14:36:38;10.10;;;3.88;;
1467;SDS011;727;48.892;9.544;2023-02-01T14:39:19;13.85;;;4.00;;
1467;SDS011;727;48.892;9.544;2023-02-01T14:41:53;8.27;;;4.28;;
1467;SDS011;727;48.892;9.544;2023-02-01T14:44:26;13.98;;;5.35;;
1467;SDS011;727;48.892;9.544;2023-02-01T14:47:11;6.13;;;4.00;;
1467;SDS011;727;48.892;9.544;2023-02-01T14:50:16;22.27;;;13.75;;
1467;SDS011;727;48.892;9.544;2023-02-01T14:53:05;12.15;;;7.38;;
1467;SDS011;727;48.892;9.544;2023-02-01T14:55:49;9.15;;;4.63;;
1467;SDS011;727;48.892;9.544;2023-02-01T14:58:21;8.77;;;5.25;;
1467;SDS011;727;48.892;9.544;2023-02-01T15:00:56;17.58;;;7.07;;
1467;SDS011;727;48.892;9.544;2023-02-01T15:03:39;15.07;;;4.38;;
1467;SDS011;727;48.892;9.544;2023-02-01T15:06:18;10.43;;;5.03;;
1467;SDS011;727;48.892;9.544;2023-02-01T15:08:52;12.40;;;4.75;;
1467;SDS011;727;48.892;9.544;2023-02-01T15:11:22;18.27;;;7.78;;
1467;SDS011;727;48.892;9.544;2023-02-01T15:13:49;17.73;;;6.20;;
1467;SDS011;727;48.892;9.544;2023-02-01T15:16:19;13.23;;;6.18;;
1467;SDS011;727;48.892;9.544;2023-02-01T15:18:47;12.57;;;4.35;;
1467;SDS011;727;48.892;9.544;2023-02-01T15:21:16;10.45;;;4.40;;
1467;SDS011;727;48.892;9.544;2023-02-01T15:23:44;7.22;;;3.88;;
1467;SDS011;727;48.892;9.544;2023-02-01T15:26:27;7.07;;;3.80;;
1467;SDS011;727;48.892;9.544;2023-02-01T15:28:56;8.35;;;3.90;;
1467;SDS011;727;48.892;9.544;2023-02-01T15:31:33;9.82;;;4.65;;
1467;SDS011;727;48.892;9.544;2023-02-01T15:34:01;15.85;;;3.85;;
1467;SDS011;727;48.892;9.544;2023-02-01T15:36:28;8.40;;;3.70;;
1467;SDS011;727;48.892;9.544;2023-02-01T15:39:13;10.05;;;4.10;;
1467;SDS011;727;48.892;9.544;2023-02-01T15:41:47;10.45;;;4.13;;
1467;SDS011;727;48.892;9.544;2023-02-01T15:44:28;12.63;;;4.63;;
1467;SDS011;727;48.892;9.544;2023-02-01T15:46:58;8.55;;;3.72;;
1467;SDS011;727;48.892;9.544;2023-02-01T15:49:27;12.93;;;4.30;;
1467;SDS011;727;48.892;9.544;2023-02-01T15:51:56;8.23;;;3.88;;
1467;SDS011;727;48.892;9.544;2023-02-01T15:54:26;6.40;;;4.07;;
1467;SDS011;727;48.892;9.544;2023-02-01T15:56:57;20.30;;;5.18;;
1467;SDS011;727;48.892;9.544;2023-02-01T15:59:29;8.10;;;3.97;;
1467;SDS011;727;48.892;9.544;2023-02-01T16:02:01;9.05;;;3.65;;
1467;SDS011;727;48.892;9.544;2023-02-01T16:04:28;9.27;;;3.92;;
1467;SDS011;727;48.892;9.544;2023-02-01T16:06:56;11.80;;;4.90;;
1467;SDS011;727;48.892;9.544;2023-02-01T16:09:34;14.35;;;5.20;;
1467;SDS011;727;48.892;9.544;2023-02-01T16:12:20;7.07;;;4.00;;
1467;SDS011;727;48.892;9.544;2023-02-01T16:14:54;9.43;;;4.15;;